Time;durP1;ratioP1;P1;durP2;ratioP2;P2;SDS_P1;SDS_P2;PMS_P1;PMS_P2;Temp;Humidity;BMP_temperature;BMP_pressure;BME280_temperature;BME280_humidity;BME280_pressure;Samples;Min_cycle;Max_cycle;Signal;HPM_P1;HPM_P2
2022/07/24 00:02:11;;;;;;;13.57;7.12;;;;;;;29.00;38.64;98638.59;4488066;32;20084;-87
2022/07/24 00:04:36;;;;;;;13.23;7.65;;;;;;;28.58;40.18;98631.63;4488172;32;20471;-84
2022/07/24 00:07:02;;;;;;;14.07;8.43;;;;;;;28.54;40.52;98628.47;4488060;32;20125;-85
2022/07/24 00:09:27;;;;;;;13.18;7.68;;;;;;;28.92;40.05;98625.25;4488008;32;20111;-85
2022/07/24 00:11:53;;;;;;;12.90;7.65;;;;;;;28.26;41.95;98622.28;4487936;32;20143;-86
2022/07/24 00:14:18;;;;;;;15.27;8.40;;;;;;;28.44;41.68;98628.84;4487961;32;20104;-86
2022/07/24 00:16:44;;;;;;;14.25;8.05;;;;;;;28.07;42.83;98619.31;4488017;32;20180;-84
2022/07/24 00:19:09;;;;;;;14.13;8.27;;;;;;;27.92;43.31;98624.03;4487906;32;20092;-84
2022/07/24 00:21:35;;;;;;;13.68;7.95;;;;;;;28.20;42.68;98623.94;4487993;32;20420;-85
2022/07/24 00:24:01;;;;;;;14.55;8.30;;;;;;;27.66;43.98;98639.00;4487996;32;20117;-84
2022/07/24 00:26:26;;;;;;;13.50;8.25;;;;;;;27.75;43.80;98635.13;4487874;32;20103;-85
2022/07/24 00:28:52;;;;;;;14.18;7.80;;;;;;;28.21;42.68;98639.16;4487920;32;20466;-85
2022/07/24 00:31:17;;;;;;;12.55;7.57;;;;;;;28.40;42.05;98643.00;4487908;32;20092;-88
2022/07/24 00:33:43;;;;;;;13.18;7.35;;;;;;;28.53;41.72;98637.66;4487779;32;20380;-87
2022/07/24 00:36:08;;;;;;;14.23;7.62;;;;;;;28.38;41.91;98639.66;4487871;32;20120;-86
2022/07/24 00:38:34;;;;;;;14.30;8.23;;;;;;;27.50;44.00;98637.44;4487761;32;20150;-85
2022/07/24 00:40:59;;;;;;;14.60;8.60;;;;;;;27.91;43.29;98636.72;4487837;32;20085;-86
2022/07/24 00:43:25;;;;;;;14.02;8.43;;;;;;;27.81;43.45;98628.91;4473573;32;20134;-86
2022/07/24 00:45:50;;;;;;;13.30;8.20;;;;;;;28.19;42.40;98638.53;4487753;32;20104;-86
2022/07/24 00:48:16;;;;;;;12.98;8.18;;;;;;;27.58;43.99;98639.16;4473810;32;20123;-89
2022/07/24 00:50:43;;;;;;;14.95;8.45;;;;;;;27.39;44.73;98638.81;4487804;32;20119;-88
2022/07/24 00:53:08;;;;;;;14.18;8.32;;;;;;;27.10;45.44;98642.50;4487972;32;20123;-88
2022/07/24 00:55:34;;;;;;;16.52;8.80;;;;;;;27.09;45.65;98662.44;4488039;32;20139;-85
2022/07/24 00:58:00;;;;;;;18.00;8.35;;;;;;;27.28;45.34;98652.87;4473635;32;20497;-85
2022/07/24 01:00:26;;;;;;;13.20;7.90;;;;;;;27.63;44.33;98651.06;4487400;32;20130;-85
2022/07/24 01:02:51;;;;;;;15.50;8.00;;;;;;;27.82;43.83;98644.13;4488059;32;20096;-85
2022/07/24 01:05:17;;;;;;;13.50;7.97;;;;;;;27.34;45.15;98646.69;4473464;32;20159;-85
2022/07/24 01:07:43;;;;;;;13.02;8.10;;;;;;;27.94;43.72;98633.59;4473637;32;20092;-85
2022/07/24 01:10:09;;;;;;;14.57;7.93;;;;;;;27.11;45.45;98641.44;4487582;32;20112;-85
2022/07/24 01:12:36;;;;;;;15.10;7.80;;;;;;;27.46;44.74;98636.97;4473406;32;20155;-85
2022/07/24 01:15:03;;;;;;;15.95;8.18;;;;;;;27.37;44.79;98632.78;4487701;32;20115;-85
2022/07/24 01:17:30;;;;;;;13.50;7.85;;;;;;;27.73;43.67;98620.94;4487550;32;20148;-86
2022/07/24 01:19:56;;;;;;;15.95;7.85;;;;;;;27.25;44.54;98627.06;4487549;32;20136;-85
2022/07/24 01:22:21;;;;;;;13.45;7.07;;;;;;;27.21;44.32;98625.72;4473189;32;20127;-85
2022/07/24 01:24:48;;;;;;;11.65;6.50;;;;;;;26.74;45.09;98634.44;4487508;32;20360;-85
2022/07/24 01:27:14;;;;;;;16.67;6.90;;;;;;;26.72;44.81;98631.91;4473158;32;20136;-85
2022/07/24 01:29:39;;;;;;;13.38;7.10;;;;;;;26.86;43.88;98636.41;4487280;32;20417;-86
2022/07/24 01:32:05;;;;;;;14.20;6.75;;;;;;;26.94;43.49;98640.88;4487543;32;20158;-86
2022/07/24 01:34:30;;;;;;;10.80;6.53;;;;;;;26.95;43.26;98645.25;4487461;32;20088;-85
2022/07/24 01:36:56;;;;;;;11.48;6.82;;;;;;;26.92;43.23;98639.38;4487328;32;20356;-86
2022/07/24 01:39:21;;;;;;;13.60;6.47;;;;;;;27.11;42.96;98644.16;4487445;32;20138;-85
2022/07/24 01:41:46;;;;;;;12.60;6.55;;;;;;;27.26;42.47;98638.72;4487347;32;20380;-87
2022/07/24 01:44:12;;;;;;;12.80;6.60;;;;;;;26.90;43.27;98650.38;4487399;32;20139;-86
2022/07/24 01:46:37;;;;;;;12.57;7.22;;;;;;;27.29;42.45;98643.72;4487289;32;20080;-86
2022/07/24 01:49:03;;;;;;;13.02;6.57;;;;;;;27.36;42.22;98644.63;4472986;32;20107;-86
2022/07/24 01:51:28;;;;;;;11.65;6.37;;;;;;;27.10;42.90;98628.97;4487252;32;20591;-88
2022/07/24 01:53:54;;;;;;;12.80;6.78;;;;;;;27.42;42.32;98622.19;4487257;32;20155;-87
2022/07/24 01:56:19;;;;;;;12.85;6.85;;;;;;;27.47;42.12;98624.31;4487373;32;20088;-87
2022/07/24 01:58:45;;;;;;;11.93;6.72;;;;;;;27.26;42.56;98625.19;4487240;32;20112;-87
2022/07/24 02:01:10;;;;;;;13.27;6.28;;;;;;;27.42;42.24;98616.78;4487463;32;20101;-88
2022/07/24 02:03:35;;;;;;;12.75;6.85;;;;;;;27.03;43.04;98636.19;4487493;32;20089;-87
2022/07/24 02:06:01;;;;;;;13.30;6.82;;;;;;;26.87;43.32;98642.69;4487490;32;20076;-88
2022/07/24 02:08:26;;;;;;;12.45;6.75;;;;;;;27.04;42.60;98646.81;4487341;32;20100;-88
2022/07/24 02:10:53;;;;;;;12.13;6.43;;;;;;;26.80;43.19;98639.06;4486096;32;20101;-88
2022/07/24 02:13:18;;;;;;;12.70;6.18;;;;;;;26.76;43.10;98646.72;4487389;32;20115;-86
2022/07/24 02:15:44;;;;;;;12.73;6.22;;;;;;;26.68;43.36;98641.44;4487488;32;20114;-88
2022/07/24 02:18:09;;;;;;;11.50;6.35;;;;;;;26.53;43.83;98641.44;4487373;32;20131;-87
2022/07/24 02:20:34;;;;;;;11.82;6.53;;;;;;;26.99;42.67;98629.50;4473107;32;20490;-83
2022/07/24 02:23:00;;;;;;;12.20;6.53;;;;;;;26.54;43.64;98624.22;4487424;32;20435;-85
2022/07/24 02:25:25;;;;;;;10.90;6.10;;;;;;;26.95;42.80;98617.38;4472991;32;20123;-84
2022/07/24 02:27:51;;;;;;;14.82;6.65;;;;;;;27.11;42.53;98619.00;4487376;32;20131;-84
2022/07/24 02:30:19;;;;;;;13.05;6.30;;;;;;;27.36;41.98;98620.28;4487274;32;20101;-85
2022/07/24 02:32:45;;;;;;;12.25;6.28;;;;;;;27.16;42.41;98621.94;4487217;32;20159;-86
2022/07/24 02:35:10;;;;;;;14.13;6.07;;;;;;;26.88;42.99;98620.84;4473087;32;20104;-86
2022/07/24 02:37:37;;;;;;;12.50;7.07;;;;;;;26.62;43.79;98623.28;4487223;32;20156;-87
2022/07/24 02:40:04;;;;;;;12.93;6.75;;;;;;;26.70;43.67;98627.75;4473002;32;20116;-85
2022/07/24 02:42:30;;;;;;;13.70;6.30;;;;;;;27.20;42.61;98618.66;4487320;32;20096;-85
2022/07/24 02:44:56;;;;;;;14.13;6.40;;;;;;;27.46;41.92;98626.16;4487151;32;20153;-85
2022/07/24 02:47:21;;;;;;;12.48;6.47;;;;;;;27.54;41.74;98622.47;4472862;32;20133;-88
2022/07/24 02:49:46;;;;;;;12.52;6.15;;;;;;;27.73;41.42;98609.28;4487109;32;20096;-87
2022/07/24 02:52:12;;;;;;;13.50;6.37;;;;;;;27.54;41.89;98606.25;4487077;32;20093;-86
2022/07/24 02:54:37;;;;;;;13.65;6.35;;;;;;;27.18;42.80;98596.38;4472856;32;20118;-84
2022/07/24 02:57:03;;;;;;;11.80;6.82;;;;;;;27.31;42.62;98595.66;4487007;32;20088;-84
2022/07/24 02:59:28;;;;;;;11.88;6.55;;;;;;;27.29;42.74;98595.03;4487020;32;20500;-84
2022/07/24 03:01:54;;;;;;;13.82;7.18;;;;;;;26.80;43.94;98593.94;4487112;32;20119;-85
2022/07/24 03:04:19;;;;;;;13.20;6.45;;;;;;;26.53;44.50;98597.38;4472697;32;20088;-85
2022/07/24 03:06:44;;;;;;;13.13;6.40;;;;;;;27.02;43.14;98597.50;4486972;32;20100;-84
2022/07/24 03:09:10;;;;;;;12.73;6.72;;;;;;;26.72;43.83;98596.78;4486965;32;20443;-87
2022/07/24 03:11:35;;;;;;;13.60;6.87;;;;;;;26.83;43.74;98596.28;4472370;32;20649;-86
2022/07/24 03:14:01;;;;;;;13.30;6.62;;;;;;;26.85;43.69;98607.72;4486878;32;20340;-86
2022/07/24 03:16:26;;;;;;;13.55;6.55;;;;;;;26.83;43.82;98603.53;4486784;32;20132;-86
2022/07/24 03:18:52;;;;;;;12.40;6.75;;;;;;;27.18;43.00;98604.50;4486802;32;20172;-85
2022/07/24 03:21:19;;;;;;;15.43;7.22;;;;;;;27.12;43.19;98599.88;4486794;32;20238;-85
2022/07/24 03:23:45;;;;;;;14.93;7.40;;;;;;;26.91;43.76;98600.72;4486433;32;20080;-85
2022/07/24 03:26:10;;;;;;;13.25;6.62;;;;;;;26.91;43.84;98602.56;4486726;32;20106;-85
2022/07/24 03:28:36;;;;;;;11.23;6.70;;;;;;;26.98;43.69;98606.19;4486644;32;20101;-86
2022/07/24 03:31:01;;;;;;;13.55;7.37;;;;;;;27.07;43.55;98597.72;4486528;32;20395;-85
2022/07/24 03:33:27;;;;;;;11.80;6.78;;;;;;;27.30;43.11;98595.88;4486579;32;20131;-84
2022/07/24 03:35:53;;;;;;;15.80;6.93;;;;;;;27.06;43.64;98595.22;4486506;32;20084;-84
2022/07/24 03:38:19;;;;;;;13.38;7.05;;;;;;;27.03;43.86;98601.03;4486552;32;20392;-84
2022/07/24 03:40:44;;;;;;;13.20;7.45;;;;;;;27.50;42.72;98587.91;4472260;32;20281;-84
2022/07/24 03:43:10;;;;;;;12.77;6.90;;;;;;;26.76;44.41;98595.38;4486456;32;20345;-84
2022/07/24 03:45:35;;;;;;;15.50;7.93;;;;;;;26.65;44.66;98590.47;4472244;32;20136;-84
2022/07/24 03:48:01;;;;;;;14.02;6.93;;;;;;;26.78;44.44;98603.28;4486129;32;20116;-84
2022/07/24 03:50:26;;;;;;;12.68;7.28;;;;;;;26.74;44.57;98605.53;4486009;32;20495;-84
2022/07/24 03:52:52;;;;;;;13.85;7.50;;;;;;;26.78;44.42;98608.69;4485996;32;20092;-86
2022/07/24 03:55:17;;;;;;;12.20;6.75;;;;;;;26.65;44.64;98603.97;4485872;32;20100;-86
2022/07/24 03:57:43;;;;;;;12.20;6.72;;;;;;;26.76;44.58;98603.47;4485990;32;20176;-86
2022/07/24 04:00:09;;;;;;;13.35;6.72;;;;;;;26.65;44.73;98598.56;4485922;32;20111;-88
2022/07/24 04:02:34;;;;;;;12.63;6.68;;;;;;;26.37;45.64;98603.84;4485782;32;20124;-86
2022/07/24 04:05:00;;;;;;;14.90;6.72;;;;;;;26.80;44.58;98590.41;4471559;32;20088;-88
2022/07/24 04:07:25;;;;;;;13.18;6.72;;;;;;;26.81;44.65;98592.94;4485742;32;20105;-88
2022/07/24 04:09:51;;;;;;;12.98;6.68;;;;;;;27.00;44.15;98591.41;4471357;32;20160;-88
2022/07/24 04:12:16;;;;;;;11.95;6.55;;;;;;;26.88;44.60;98599.22;4485888;32;20089;-88
2022/07/24 04:14:42;;;;;;;13.48;6.68;;;;;;;26.72;44.96;98606.75;4485711;32;20401;-89
2022/07/24 04:17:07;;;;;;;12.37;7.22;;;;;;;26.96;44.46;98598.25;4485829;32;20128;-85
2022/07/24 04:19:33;;;;;;;13.77;7.55;;;;;;;26.75;44.98;98601.78;4485707;32;20106;-86
2022/07/24 04:21:58;;;;;;;11.18;6.15;;;;;;;26.73;45.18;98603.84;4471211;32;20146;-87
2022/07/24 04:24:24;;;;;;;12.30;7.03;;;;;;;27.16;44.42;98600.28;4485632;32;20129;-85
2022/07/24 04:26:49;;;;;;;12.93;7.50;;;;;;;27.11;44.38;98605.47;4485456;32;20096;-87
2022/07/24 04:29:15;;;;;;;14.15;7.68;;;;;;;27.48;43.83;98598.09;4485524;32;20119;-87
2022/07/24 04:31:40;;;;;;;13.27;7.30;;;;;;;27.32;44.28;98599.22;4471277;32;20110;-86
2022/07/24 04:34:06;;;;;;;14.13;7.37;;;;;;;27.35;44.12;98605.09;4485607;32;20476;-86
2022/07/24 04:36:31;;;;;;;15.57;7.53;;;;;;;28.05;42.71;98605.13;4487915;32;20096;-88
2022/07/24 04:38:57;;;;;;;15.60;7.90;;;;;;;28.02;42.62;98617.19;4487868;32;20092;-87
2022/07/24 04:41:23;;;;;;;13.30;7.37;;;;;;;27.59;43.79;98620.03;4487809;32;20107;-88
2022/07/24 04:43:49;;;;;;;14.15;7.55;;;;;;;28.23;42.46;98634.38;4487837;32;20115;-87
2022/07/24 04:46:15;;;;;;;13.95;8.05;;;;;;;27.85;43.40;98627.50;4487941;32;20436;-86
2022/07/24 04:48:41;;;;;;;15.15;7.70;;;;;;;27.74;43.61;98641.59;4487776;32;20092;-84
2022/07/24 04:51:06;;;;;;;14.50;7.57;;;;;;;27.67;43.99;98642.56;4487656;32;20119;-86
2022/07/24 04:53:32;;;;;;;12.48;7.80;;;;;;;28.12;43.20;98648.50;4487718;32;20088;-85
2022/07/24 04:55:57;;;;;;;14.25;8.35;;;;;;;28.05;43.31;98645.75;4473410;32;20447;-85
2022/07/24 04:58:23;;;;;;;14.00;8.23;;;;;;;27.74;44.07;98648.84;4487649;32;20338;-86
2022/07/24 05:00:49;;;;;;;14.63;8.02;;;;;;;27.60;44.54;98656.88;4487741;32;20116;-88
2022/07/24 05:03:14;;;;;;;13.02;7.65;;;;;;;27.54;44.85;98664.94;4473242;32;20152;-88
2022/07/24 05:05:39;;;;;;;13.55;8.23;;;;;;;27.55;44.94;98674.75;4487569;32;20093;-89
2022/07/24 05:08:05;;;;;;;14.45;8.02;;;;;;;27.72;44.61;98675.28;4473484;32;20368;-86
2022/07/24 05:10:30;;;;;;;14.75;8.40;;;;;;;27.63;44.81;98688.94;4487206;32;20092;-87
2022/07/24 05:12:56;;;;;;;13.60;8.52;;;;;;;26.91;46.53;98689.91;4473373;32;20111;-85
2022/07/24 05:15:21;;;;;;;15.00;8.77;;;;;;;27.43;45.59;98690.69;4487554;32;20134;-85
2022/07/24 05:17:47;;;;;;;13.90;8.07;;;;;;;26.45;48.12;98691.00;4473242;32;20100;-85
2022/07/24 05:20:13;;;;;;;15.93;8.75;;;;;;;26.72;47.55;98702.19;4487645;32;20106;-88
2022/07/24 05:22:39;;;;;;;16.45;8.57;;;;;;;26.73;47.58;98701.12;4487461;32;20357;-85
2022/07/24 05:25:05;;;;;;;13.77;8.27;;;;;;;27.04;46.89;98679.25;4487420;32;20132;-85
2022/07/24 05:27:31;;;;;;;13.73;8.43;;;;;;;26.81;47.64;98694.78;4473213;32;20104;-84
2022/07/24 05:29:56;;;;;;;15.27;8.25;;;;;;;27.03;47.09;98677.56;4487442;32;20084;-85
2022/07/24 05:32:21;;;;;;;15.35;8.32;;;;;;;27.03;47.10;98696.50;4473207;32;20077;-85
2022/07/24 05:34:47;;;;;;;14.68;8.23;;;;;;;27.22;46.52;98694.19;4487414;32;20384;-86
2022/07/24 05:37:12;;;;;;;14.60;8.30;;;;;;;27.06;46.88;98700.66;4473183;32;20104;-85
2022/07/24 05:39:38;;;;;;;15.30;8.70;;;;;;;27.19;46.82;98711.63;4487515;32;20127;-86
2022/07/24 05:42:04;;;;;;;15.15;9.13;;;;;;;27.67;45.67;98713.75;4473152;32;20080;-87
2022/07/24 05:44:29;;;;;;;13.82;7.93;;;;;;;27.74;45.55;98717.38;4487350;32;20120;-86
2022/07/24 05:46:55;;;;;;;14.63;8.68;;;;;;;28.01;45.15;98718.44;4487335;32;20143;-88
2022/07/24 05:49:20;;;;;;;13.98;8.57;;;;;;;28.52;43.99;98721.88;4487378;32;20117;-86
2022/07/24 05:51:45;;;;;;;18.85;9.75;;;;;;;28.67;43.35;98713.63;4474161;32;20077;-86
2022/07/24 05:54:11;;;;;;;16.25;8.55;;;;;;;28.89;43.17;98722.44;4495399;31;20114;-89
2022/07/24 05:56:36;;;;;;;15.48;8.88;;;;;;;28.48;44.10;98718.69;4480197;31;20076;-85
2022/07/24 05:59:02;;;;;;;16.00;9.00;;;;;;;28.76;44.03;98717.78;4487395;31;20363;-90
2022/07/24 06:01:27;;;;;;;16.45;8.95;;;;;;;28.97;43.01;98727.66;4486143;31;20134;-89
2022/07/24 06:03:53;;;;;;;15.65;8.80;;;;;;;29.00;43.02;98727.28;4474926;32;20104;-90
2022/07/24 06:06:18;;;;;;;15.88;8.98;;;;;;;29.27;42.59;98721.94;4495210;31;20139;-89
2022/07/24 06:08:45;;;;;;;15.77;8.95;;;;;;;28.96;42.75;98728.72;4491655;31;20147;-89
2022/07/24 06:11:10;;;;;;;16.83;10.10;;;;;;;28.79;42.37;98730.97;4490895;31;20103;-87
2022/07/24 06:13:36;;;;;;;14.77;9.05;;;;;;;28.62;43.24;98730.47;4490880;31;20099;-86
2022/07/24 06:16:01;;;;;;;17.35;10.18;;;;;;;28.97;41.97;98730.38;4496603;31;20100;-90
2022/07/24 06:18:27;;;;;;;14.95;9.55;;;;;;;28.68;42.70;98731.53;4493363;31;20218;-90
2022/07/24 06:20:52;;;;;;;14.18;9.38;;;;;;;29.13;41.92;98732.78;4486848;32;20092;-92
2022/07/24 06:23:18;;;;;;;15.23;9.27;;;;;;;29.13;41.70;98723.78;4486844;32;20089;-88
2022/07/24 06:25:43;;;;;;;15.00;9.40;;;;;;;29.17;42.17;98733.19;4491475;31;20080;-89
2022/07/24 06:28:08;;;;;;;16.45;9.77;;;;;;;29.55;41.27;98719.03;4495273;31;20367;-91
2022/07/24 06:30:34;;;;;;;15.63;9.32;;;;;;;29.60;41.32;98727.41;4496782;31;20387;-89
2022/07/24 06:32:59;;;;;;;15.15;9.50;;;;;;;29.54;41.13;98729.06;4475439;32;20123;-93
2022/07/24 06:35:26;;;;;;;15.27;10.05;;;;;;;29.95;40.21;98728.03;4499886;31;20105;-91
2022/07/24 06:37:52;;;;;;;14.85;9.70;;;;;;;28.98;41.76;98737.50;4477788;31;20447;-87
2022/07/24 06:40:18;;;;;;;17.00;9.82;;;;;;;29.43;40.94;98737.81;4493949;31;20099;-87
2022/07/24 06:42:45;;;;;;;16.10;10.00;;;;;;;29.13;41.61;98746.34;4483467;31;20088;-87
2022/07/24 06:45:11;;;;;;;14.55;9.15;;;;;;;29.64;40.39;98738.69;4474886;31;20150;-89
2022/07/24 06:47:36;;;;;;;15.82;9.52;;;;;;;30.01;39.98;98736.41;4498757;31;20442;-84
2022/07/24 06:50:03;;;;;;;16.75;10.13;;;;;;;29.86;40.25;98734.72;4493251;31;20088;-90
2022/07/24 06:52:28;;;;;;;15.67;10.40;;;;;;;29.69;40.66;98745.16;4478670;32;20130;-93
2022/07/24 06:54:54;;;;;;;14.98;10.18;;;;;;;29.41;40.84;98739.91;4490122;31;20096;-92
2022/07/24 06:57:19;;;;;;;15.35;9.63;;;;;;;29.10;41.60;98740.44;4498966;31;20373;-85
2022/07/24 06:59:45;;;;;;;15.35;9.95;;;;;;;29.66;40.42;98755.59;4476985;31;20080;-83
2022/07/24 07:02:11;;;;;;;14.93;10.32;;;;;;;29.16;41.31;98758.63;4494832;31;20115;-83
2022/07/24 07:04:36;;;;;;;17.00;10.27;;;;;;;29.08;41.29;98759.63;4482297;31;20163;-82
2022/07/24 07:07:03;;;;;;;16.55;10.52;;;;;;;29.19;41.22;98748.22;4461676;31;20352;-82
2022/07/24 07:09:28;;;;;;;15.80;9.65;;;;;;;29.00;41.72;98759.81;4484946;32;20571;-82
2022/07/24 07:11:54;;;;;;;14.65;9.50;;;;;;;29.33;40.62;98753.69;4491991;31;20119;-87
2022/07/24 07:14:19;;;;;;;16.15;9.77;;;;;;;29.15;40.73;98757.00;4480514;31;20122;-87
2022/07/24 07:16:45;;;;;;;17.92;9.95;;;;;;;29.08;40.56;98756.91;4487860;31;20143;-86
2022/07/24 07:19:10;;;;;;;18.23;9.88;;;;;;;29.12;40.58;98760.06;4478921;31;20092;-86
2022/07/24 07:21:37;;;;;;;19.15;9.15;;;;;;;29.19;40.23;98764.50;4479014;31;20152;-85
2022/07/24 07:24:03;;;;;;;15.57;9.63;;;;;;;29.56;39.88;98758.72;4493521;31;20175;-93
2022/07/24 07:26:29;;;;;;;14.07;9.20;;;;;;;29.80;38.99;98760.00;4493813;31;20056;-90
2022/07/24 07:28:54;;;;;;;14.90;9.45;;;;;;;29.53;39.40;98767.28;4478957;32;20424;-82
2022/07/24 07:31:20;;;;;;;15.82;9.65;;;;;;;29.38;40.09;98773.72;4482000;31;20136;-86
2022/07/24 07:33:45;;;;;;;14.45;9.80;;;;;;;29.72;39.35;98768.34;4496160;31;20168;-83
2022/07/24 07:36:10;;;;;;;14.55;9.75;;;;;;;30.30;38.07;98765.81;4487751;31;20132;-82
2022/07/24 07:38:37;;;;;;;14.10;9.48;;;;;;;29.92;38.14;98769.22;4487925;31;20084;-83
2022/07/24 07:41:03;;;;;;;14.07;9.45;;;;;;;30.18;37.92;98772.97;4473758;31;20452;-81
2022/07/24 07:43:29;;;;;;;13.30;9.02;;;;;;;30.54;36.26;98771.69;4489372;31;20124;-83
2022/07/24 07:45:55;;;;;;;13.80;8.55;;;;;;;30.88;35.82;98766.94;4473585;32;20107;-81
2022/07/24 07:48:20;;;;;;;14.10;9.27;;;;;;;30.90;35.22;98770.31;4487650;31;20122;-85
2022/07/24 07:50:46;;;;;;;13.32;8.82;;;;;;;30.89;34.11;98768.63;4487525;31;20112;-84
2022/07/24 07:53:11;;;;;;;14.13;9.20;;;;;;;31.04;34.16;98765.63;4490853;31;20108;-83
2022/07/24 07:55:36;;;;;;;14.38;9.07;;;;;;;30.22;35.35;98770.66;4485422;32;20089;-83
2022/07/24 07:58:03;;;;;;;15.23;9.13;;;;;;;30.24;36.00;98772.09;4487440;31;20064;-85
2022/07/24 08:00:28;;;;;;;14.53;9.03;;;;;;;30.36;35.56;98769.59;4487185;31;20148;-88
2022/07/24 08:02:54;;;;;;;14.18;9.20;;;;;;;30.71;34.38;98772.03;4489622;31;20152;-91
2022/07/24 08:05:19;;;;;;;14.45;9.25;;;;;;;30.52;34.76;98774.59;4492155;31;20466;-86
2022/07/24 08:07:45;;;;;;;13.62;8.70;;;;;;;30.77;34.74;98771.16;4490386;31;20112;-87
2022/07/24 08:10:11;;;;;;;14.27;8.68;;;;;;;30.98;34.02;98767.34;4494467;31;20230;-83
2022/07/24 08:12:36;;;;;;;13.93;8.80;;;;;;;31.06;34.13;98763.53;4498160;31;20076;-84
2022/07/24 08:15:02;;;;;;;13.77;9.32;;;;;;;31.06;34.33;98758.94;4476338;31;20080;-92
2022/07/24 08:17:28;;;;;;;16.08;9.48;;;;;;;30.75;34.95;98773.25;4497141;31;20118;-88
2022/07/24 08:19:53;;;;;;;15.30;9.25;;;;;;;30.94;33.68;98776.97;4495012;31;20192;-89
2022/07/24 08:22:18;;;;;;;15.50;9.90;;;;;;;31.25;33.25;98776.19;4493682;31;20352;-87
2022/07/24 08:24:44;;;;;;;14.48;10.13;;;;;;;31.12;33.73;98774.41;4500216;31;20428;-84
2022/07/24 08:27:09;;;;;;;15.60;9.27;;;;;;;31.67;33.32;98776.59;4477424;31;20132;-88
2022/07/24 08:29:35;;;;;;;16.40;10.18;;;;;;;31.79;33.24;98776.69;4488771;31;20128;-83
2022/07/24 08:32:00;;;;;;;16.05;10.10;;;;;;;31.73;33.20;98777.59;4492888;31;20092;-85
2022/07/24 08:34:26;;;;;;;14.68;9.30;;;;;;;31.62;33.11;98781.87;4494785;31;20144;-82
2022/07/24 08:36:51;;;;;;;14.52;9.55;;;;;;;31.78;33.29;98774.22;4498524;31;20388;-84
2022/07/24 08:39:16;;;;;;;15.02;8.95;;;;;;;31.79;32.36;98773.16;4490007;31;20119;-83
2022/07/24 08:41:43;;;;;;;13.70;7.93;;;;;;;31.16;32.21;98761.19;4488026;31;20459;-82
2022/07/24 08:44:09;;;;;;;12.60;7.93;;;;;;;31.59;30.98;98781.47;4482400;32;20096;-83
2022/07/24 08:46:39;;;;;;;16.73;9.17;;;;;;;31.07;32.22;98776.09;4496624;31;20080;-83
2022/07/24 08:49:11;;;;;;;15.80;8.43;;;;;;;31.00;31.84;98781.56;4476356;32;20156;-83
2022/07/24 08:51:38;;;;;;;13.05;7.80;;;;;;;30.95;31.64;98789.53;4494343;31;20417;-87
2022/07/24 08:54:04;;;;;;;14.20;8.18;;;;;;;30.99;30.88;98784.50;4476963;31;20164;-84
2022/07/24 08:56:30;;;;;;;13.57;8.15;;;;;;;30.02;32.63;98798.69;4478468;31;20080;-78
2022/07/24 08:58:56;;;;;;;13.48;8.45;;;;;;;30.67;31.98;98790.63;4493738;31;20089;-79
2022/07/24 09:01:22;;;;;;;13.82;8.35;;;;;;;30.97;31.22;98792.88;4500002;31;20084;-83
2022/07/24 09:03:47;;;;;;;11.60;6.90;;;;;;;30.67;31.87;98787.09;4491388;31;20451;-81
2022/07/24 09:06:14;;;;;;;12.10;7.12;;;;;;;30.95;30.50;98795.81;4481594;32;20131;-80
2022/07/24 09:08:56;;;;;;;12.45;7.50;;;;;;;31.40;29.20;98797.69;4497111;31;20122;-81
2022/07/24 09:11:22;;;;;;;12.50;7.18;;;;;;;30.94;30.03;98798.75;4489610;31;20092;-82
2022/07/24 09:16:36;;;;;;;11.07;6.90;;;;;;;31.58;28.84;98796.13;4484463;31;20105;-82
2022/07/24 09:19:07;;;;;;;12.68;7.55;;;;;;;31.57;28.51;98798.03;4476416;32;20120;-82
2022/07/24 09:21:38;;;;;;;13.73;8.13;;;;;;;31.49;29.09;98799.13;4485545;31;20155;-84
2022/07/24 09:24:14;;;;;;;13.13;8.40;;;;;;;31.46;30.18;98799.56;4477422;31;20114;-81
2022/07/24 09:26:55;;;;;;;14.63;8.68;;;;;;;31.55;30.27;98803.69;4493964;31;20110;-81
2022/07/24 09:29:22;;;;;;;15.88;9.00;;;;;;;31.07;31.39;98808.75;4479083;31;20142;-81
2022/07/24 09:31:51;;;;;;;13.27;8.40;;;;;;;31.91;30.20;98799.47;4494371;31;20089;-81
2022/07/24 09:34:16;;;;;;;14.50;8.65;;;;;;;32.18;29.80;98796.56;4494597;31;20093;-81
2022/07/24 09:36:55;;;;;;;12.57;8.25;;;;;;;31.88;30.53;98799.91;4478489;32;20116;-81
2022/07/24 09:39:20;;;;;;;15.80;9.00;;;;;;;32.13;30.61;98796.37;4499990;31;20088;-81
2022/07/24 09:41:53;;;;;;;13.80;8.57;;;;;;;32.25;30.58;98800.03;4476609;31;20449;-81
2022/07/24 09:44:19;;;;;;;14.32;9.05;;;;;;;31.91;30.85;98804.06;4495088;31;20092;-81
2022/07/24 09:47:06;;;;;;;14.25;8.80;;;;;;;31.99;30.81;98808.41;4494320;31;20214;-80
2022/07/24 09:49:33;;;;;;;13.52;8.80;;;;;;;31.83;31.30;98801.62;4472284;31;20426;-80
2022/07/24 09:52:04;;;;;;;12.60;8.18;;;;;;;32.29;30.38;98801.25;4496400;31;20096;-80
2022/07/24 09:54:31;;;;;;;15.13;8.52;;;;;;;32.26;29.86;98804.44;4491085;31;20084;-80
2022/07/24 09:57:14;;;;;;;;;;;;;;;32.44;29.35;98802.78;4472950;32;20226;-80
2022/07/24 09:59:40;;;;;;;14.02;8.52;;;;;;;32.63;29.32;98799.06;4475924;31;19996;-81
2022/07/24 10:02:07;;;;;;;13.23;8.18;;;;;;;32.74;28.82;98811.09;4496404;31;20460;-81
2022/07/24 10:04:33;;;;;;;;;;;;;;;32.29;29.62;98803.97;4482050;31;20167;-81
2022/07/24 10:06:59;;;;;;;13.68;8.50;;;;;;;32.12;29.72;98805.59;4491086;31;19979;-81
2022/07/24 10:09:26;;;;;;;13.55;8.05;;;;;;;31.73;30.49;98804.84;4485499;31;20088;-81
2022/07/24 10:11:52;;;;;;;13.45;8.07;;;;;;;32.21;29.93;98792.53;4477035;31;20103;-81
2022/07/24 10:14:18;;;;;;;15.02;9.20;;;;;;;32.32;30.20;98802.72;4480709;32;20153;-81
2022/07/24 10:16:48;;;;;;;13.45;8.68;;;;;;;32.57;29.31;98791.78;4496921;31;20366;-80
2022/07/24 10:19:14;;;;;;;14.32;8.98;;;;;;;32.33;29.35;98798.91;4475209;31;20451;-81
2022/07/24 10:21:48;;;;;;;12.52;8.70;;;;;;;32.50;28.89;98799.16;4484815;32;20119;-81
2022/07/24 10:24:39;;;;;;;12.75;8.43;;;;;;;31.32;31.00;98806.13;4479265;31;20163;-80
2022/07/24 10:27:05;;;;;;;13.77;8.63;;;;;;;31.14;31.59;98809.56;4425345;32;20093;-82
2022/07/24 10:29:33;;;;;;;13.32;7.53;;;;;;;31.98;30.42;98801.31;4421793;32;20484;-86
2022/07/24 10:31:59;;;;;;;13.15;8.20;;;;;;;31.86;29.17;98807.47;4426454;32;20106;-82
2022/07/24 10:34:31;;;;;;;12.68;8.25;;;;;;;31.77;29.19;98803.34;4416862;32;20139;-83
2022/07/24 10:37:20;;;;;;;13.30;7.82;;;;;;;31.64;29.45;98812.44;4433722;32;20077;-84
2022/07/24 10:40:20;;;;;;;13.38;7.47;;;;;;;31.79;29.10;98812.13;4426121;32;20129;-87
2022/07/24 10:43:08;;;;;;;13.18;7.55;;;;;;;31.72;28.85;98814.06;4414478;32;20604;-87
2022/07/24 10:45:35;;;;;;;11.98;6.90;;;;;;;31.64;28.45;98811.59;4434711;32;20145;-87
2022/07/24 10:48:25;;;;;;;12.25;7.37;;;;;;;31.81;27.98;98807.28;4427557;32;20098;-87
2022/07/24 10:51:13;;;;;;;13.62;7.78;;;;;;;32.00;27.86;98810.91;4426724;32;20118;-85
2022/07/24 10:53:39;;;;;;;;;;;;;;;31.51;28.78;98804.37;4426671;32;20093;-85
2022/07/24 10:56:16;;;;;;;12.00;8.27;;;;;;;31.34;29.42;98801.28;4421954;32;20019;-87
2022/07/24 10:58:56;;;;;;;12.15;7.55;;;;;;;31.39;29.32;98798.75;4431908;32;20113;-86
2022/07/24 11:01:42;;;;;;;12.37;7.47;;;;;;;31.59;28.28;98797.81;4424612;32;20102;-84
2022/07/24 11:04:20;;;;;;;13.48;7.37;;;;;;;31.45;28.17;98807.94;4468592;31;20127;-86
2022/07/24 11:06:47;;;;;;;11.38;7.53;;;;;;;31.62;28.07;98791.91;4496697;31;20127;-86
2022/07/24 11:09:14;;;;;;;11.85;6.78;;;;;;;31.13;28.71;98799.72;4488966;31;20396;-86
2022/07/24 11:11:59;;;;;;;11.43;7.00;;;;;;;31.68;27.66;98781.00;4498849;31;20107;-86
2022/07/24 11:14:46;;;;;;;10.85;6.60;;;;;;;31.24;28.24;98784.59;4493842;31;20118;-86
2022/07/24 11:17:40;;;;;;;11.12;6.57;;;;;;;31.40;27.80;98785.97;4474469;31;20485;-86
2022/07/24 11:20:16;;;;;;;11.30;6.70;;;;;;;31.38;26.71;98794.34;4481836;32;20088;-88
2022/07/24 11:22:53;;;;;;;11.27;6.87;;;;;;;30.96;27.65;98791.19;4482103;31;20108;-89
2022/07/24 11:25:27;;;;;;;12.30;6.62;;;;;;;31.45;27.37;98778.81;4488882;31;20103;-88
2022/07/24 11:28:12;;;;;;;13.13;6.55;;;;;;;31.28;27.72;98777.66;4497471;31;20087;-87
2022/07/24 11:30:43;;;;;;;10.98;6.10;;;;;;;31.60;26.45;98775.78;4481149;31;20080;-89